createdAt,value
2018-12-04T00:00:38.525Z,94766.55
2018-12-04T00:03:08.081Z,94764.98
2018-12-04T00:05:36.959Z,94754.67
2018-12-04T00:08:05.737Z,94755.73
2018-12-04T00:10:34.521Z,94754.98
2018-12-04T00:13:03.388Z,94753.47
2018-12-04T00:15:32.236Z,94758.93
2018-12-04T00:18:01.000Z,94757.44
2018-12-04T00:20:29.879Z,94755.77
2018-12-04T00:22:58.656Z,94756.19
2018-12-04T00:25:27.379Z,94762.67
2018-12-04T00:27:56.091Z,94767.54
2018-12-04T00:30:24.826Z,94762.09
2018-12-04T00:32:53.640Z,94762.67
2018-12-04T00:35:22.432Z,94751.79
2018-12-04T00:37:51.514Z,94751.25
2018-12-04T00:40:20.290Z,94753.83
2018-12-04T00:42:49.198Z,94744.47
2018-12-04T00:45:17.976Z,94745.16
2018-12-04T00:47:46.753Z,94736.24
2018-12-04T00:50:15.523Z,94743.64
2018-12-04T00:52:44.337Z,94733.36
2018-12-04T00:55:13.105Z,94735.80
2018-12-04T00:57:41.826Z,94737.13
2018-12-04T01:00:12.030Z,94733.12
2018-12-04T01:02:40.760Z,94734.00
2018-12-04T01:05:09.971Z,94724.68
2018-12-04T01:07:38.705Z,94721.31
2018-12-04T01:10:08.423Z,94721.72
2018-12-04T01:12:38.068Z,94707.24
2018-12-04T01:15:07.763Z,94712.47
2018-12-04T01:17:36.991Z,94712.47
2018-12-04T01:20:06.862Z,94704.89
2018-12-04T01:22:35.630Z,94709.17
2018-12-04T01:25:05.711Z,94704.26
2018-12-04T01:27:34.445Z,94695.53
2018-12-04T01:30:06.973Z,94692.99
2018-12-04T01:32:35.737Z,94704.23
2018-12-04T01:35:05.022Z,94700.86
2018-12-04T01:37:33.784Z,94696.97
2018-12-04T01:40:02.491Z,94697.30
2018-12-04T01:42:31.242Z,94694.25
2018-12-04T01:45:00.348Z,94699.13
2018-12-04T01:47:29.085Z,94693.39
2018-12-04T01:49:57.799Z,94686.84
2018-12-04T01:52:26.561Z,94692.22
2018-12-04T01:54:55.603Z,94691.67
2018-12-04T01:57:24.805Z,94680.20
2018-12-04T01:59:53.545Z,94688.85
2018-12-04T02:02:22.294Z,94681.77
2018-12-04T02:04:51.051Z,94687.22
2018-12-04T02:07:19.767Z,94683.25
2018-12-04T02:09:48.495Z,94686.11
2018-12-04T02:12:17.205Z,94685.73
2018-12-04T02:14:45.948Z,94685.59
2018-12-04T02:17:14.689Z,94687.33
2018-12-04T02:19:43.776Z,94689.36
2018-12-04T02:22:12.495Z,94692.14
2018-12-04T02:24:41.206Z,94688.14
2018-12-04T02:27:09.959Z,94690.98
2018-12-04T02:29:38.764Z,94684.75
2018-12-04T02:32:07.494Z,94689.43
2018-12-04T02:34:36.258Z,94685.63
2018-12-04T02:37:05.466Z,94687.33
2018-12-04T02:39:34.202Z,94685.90
2018-12-04T02:42:03.013Z,94685.45
2018-12-04T02:44:31.782Z,94677.95
2018-12-04T02:47:00.588Z,94686.17
2018-12-04T02:49:29.317Z,94681.31
2018-12-04T02:51:58.040Z,94681.79
2018-12-04T02:54:26.844Z,94679.58
2018-12-04T02:59:29.580Z,94680.09
2018-12-04T03:01:58.369Z,94674.46
2018-12-04T03:04:27.065Z,94675.41
2018-12-04T03:06:55.872Z,94673.62
2018-12-04T03:09:24.629Z,94675.18
2018-12-04T03:11:54.185Z,94671.78
2018-12-04T03:14:22.951Z,94673.92
2018-12-04T03:16:51.743Z,94671.04
2018-12-04T03:19:20.528Z,94673.81
2018-12-04T03:21:49.337Z,94674.08
2018-12-04T03:24:19.081Z,94676.16
2018-12-04T03:26:47.804Z,94667.85
2018-12-04T03:29:16.608Z,94672.33
2018-12-04T03:31:45.374Z,94674.56
2018-12-04T03:34:14.128Z,94671.27
2018-12-04T03:36:42.948Z,94674.91
2018-12-04T03:39:11.724Z,94669.00
2018-12-04T03:41:40.500Z,94671.72
2018-12-04T03:44:09.243Z,94671.14
2018-12-04T03:46:38.236Z,94666.22
2018-12-04T03:49:07.028Z,94668.80
2018-12-04T03:51:35.793Z,94670.50
2018-12-04T03:54:04.537Z,94668.87
2018-12-04T03:56:33.362Z,94665.20
2018-12-04T03:59:02.482Z,94671.55
2018-12-04T04:01:31.219Z,94672.77
2018-12-04T04:03:59.979Z,94671.31
2018-12-04T04:06:28.734Z,94673.79
2018-12-04T04:08:57.525Z,94670.77
2018-12-04T04:11:26.244Z,94674.77
2018-12-04T04:13:55.025Z,94674.88
2018-12-04T04:16:23.728Z,94664.83
2018-12-04T04:18:52.535Z,94669.55
2018-12-04T04:21:21.253Z,94663.98
2018-12-04T04:23:50.324Z,94668.69
2018-12-04T04:26:19.048Z,94669.61
2018-12-04T04:28:47.772Z,94672.27
2018-12-04T04:31:16.551Z,94670.30
2018-12-04T04:33:45.310Z,94664.63
2018-12-04T04:36:14.097Z,94674.61
2018-12-04T04:38:42.922Z,94671.65
2018-12-04T04:41:11.763Z,94676.70
2018-12-04T04:43:40.540Z,94680.78
2018-12-04T04:46:09.292Z,94683.86
2018-12-04T04:48:38.022Z,94679.39
2018-12-04T04:51:06.807Z,94671.65
2018-12-04T04:53:35.558Z,94671.28
2018-12-04T04:56:04.411Z,94669.65
2018-12-04T04:58:33.152Z,94668.39
2018-12-04T05:01:01.899Z,94669.95
2018-12-04T05:03:30.621Z,94662.45
2018-12-04T05:05:59.374Z,94662.52
2018-12-04T05:08:28.085Z,94667.54
2018-12-04T05:10:56.863Z,94658.82
2018-12-04T05:13:25.698Z,94658.52
2018-12-04T05:15:54.797Z,94663.33
2018-12-04T05:18:23.583Z,94653.45
2018-12-04T05:20:52.357Z,94657.72
2018-12-04T05:23:21.105Z,94655.56
2018-12-04T05:25:49.895Z,94651.72
2018-12-04T05:28:18.715Z,94655.37
2018-12-04T05:30:47.584Z,94651.10
2018-12-04T05:33:16.346Z,94654.95
2018-12-04T05:35:45.066Z,94654.61
2018-12-04T05:38:13.801Z,94656.99
2018-12-04T05:40:42.551Z,94653.06
2018-12-04T05:43:11.258Z,94658.14
2018-12-04T05:45:40.012Z,94656.58
2018-12-04T05:48:08.782Z,94658.23
2018-12-04T05:50:37.748Z,94653.74
2018-12-04T05:53:17.600Z,94658.09
2018-12-04T05:55:46.428Z,94656.88
2018-12-04T05:58:15.166Z,94659.16
2018-12-04T06:00:43.962Z,94653.66
2018-12-04T06:03:12.681Z,94661.48
2018-12-04T06:05:41.426Z,94659.63
2018-12-04T06:08:10.487Z,94666.25
2018-12-04T06:10:39.234Z,94668.60
2018-12-04T06:13:08.469Z,94674.85
2018-12-04T06:15:37.253Z,94674.23
2018-12-04T06:18:06.017Z,94681.70
2018-12-04T06:20:35.384Z,94681.73
2018-12-04T06:23:04.509Z,94685.44
2018-12-04T06:25:33.290Z,94685.23
2018-12-04T06:28:01.986Z,94689.58
2018-12-04T06:30:30.783Z,94690.34
2018-12-04T06:32:59.520Z,94688.05
2018-12-04T06:35:28.322Z,94684.34
2018-12-04T06:37:57.064Z,94690.86
2018-12-04T06:40:25.796Z,94698.02
2018-12-04T06:42:54.557Z,94692.03
2018-12-04T06:45:23.528Z,94696.64
2018-12-04T06:47:52.392Z,94695.06
2018-12-04T06:50:21.218Z,94693.58
2018-12-04T06:52:50.100Z,94693.66
2018-12-04T06:55:19.201Z,94695.57
2018-12-04T06:57:57.396Z,94694.34
2018-12-04T07:00:26.419Z,94699.89
2018-12-04T07:02:55.289Z,94693.63
2018-12-04T07:05:24.486Z,94701.90
2018-12-04T07:07:54.002Z,94695.59
2018-12-04T07:10:22.787Z,94691.16
2018-12-04T07:12:51.529Z,94689.28
2018-12-04T07:15:21.986Z,94692.91
2018-12-04T07:17:51.366Z,94687.41
2018-12-04T07:20:20.143Z,94690.27
2018-12-04T07:22:49.038Z,94693.94
2018-12-04T07:25:17.961Z,94689.92
2018-12-04T07:27:49.193Z,94692.51
2018-12-04T07:30:18.059Z,94687.06
2018-12-04T07:32:46.907Z,94692.16
2018-12-04T07:35:15.700Z,94694.27
2018-12-04T07:37:44.522Z,94695.16
2018-12-04T07:40:13.503Z,94695.70
2018-12-04T07:42:42.453Z,94702.09
2018-12-04T07:45:11.361Z,94695.48
2018-12-04T07:47:40.211Z,94698.13
2018-12-04T07:50:09.437Z,94702.09
2018-12-04T07:52:38.218Z,94704.05
2018-12-04T07:55:06.962Z,94700.57
2018-12-04T07:57:35.900Z,94707.47
2018-12-04T08:00:10.155Z,94698.89
2018-12-04T08:02:39.265Z,94700.43
2018-12-04T08:05:08.803Z,94699.81
2018-12-04T08:07:37.579Z,94701.97
2018-12-04T08:10:07.874Z,94699.61
2018-12-04T08:12:36.747Z,94707.12
2018-12-04T08:15:06.746Z,94706.05
2018-12-04T08:17:36.385Z,94703.58
2018-12-04T08:20:06.873Z,94707.16
2018-12-04T08:22:35.913Z,94698.77
2018-12-04T08:25:05.840Z,94697.69
2018-12-04T08:27:37.074Z,94701.42
2018-12-04T08:30:09.997Z,94700.48
2018-12-04T08:32:38.946Z,94701.51
2018-12-04T08:35:09.761Z,94705.23
2018-12-04T08:37:38.551Z,94705.23
2018-12-04T08:40:08.917Z,94694.09
2018-12-04T08:42:37.732Z,94692.50
2018-12-04T08:45:08.407Z,94687.98
2018-12-04T08:47:37.177Z,94688.98
2018-12-04T08:50:07.517Z,94686.59
2018-12-04T08:52:36.250Z,94680.59
2018-12-04T08:55:05.448Z,94679.63
2018-12-04T08:57:34.513Z,94680.27
2018-12-04T09:00:08.682Z,94680.27
2018-12-04T09:02:37.459Z,94677.04
2018-12-04T09:05:07.686Z,94667.96
2018-12-04T09:07:36.789Z,94666.67
2018-12-04T09:10:07.100Z,94666.32
2018-12-04T09:12:35.829Z,94670.22
2018-12-04T09:15:06.340Z,94668.28
2018-12-04T09:17:35.456Z,94670.23
2018-12-04T09:20:05.656Z,94666.34
2018-12-04T09:22:34.754Z,94660.98
2018-12-04T09:25:04.445Z,94654.67
2018-12-04T09:27:33.159Z,94657.43
2018-12-04T09:30:06.158Z,94652.06
2018-12-04T09:32:34.895Z,94650.78
2018-12-04T09:35:03.613Z,94652.23
2018-12-04T09:37:32.349Z,94642.04
2018-12-04T09:40:01.091Z,94641.73
2018-12-04T09:42:29.919Z,94635.22
2018-12-04T09:44:59.006Z,94638.13
2018-12-04T09:47:27.816Z,94635.22
2018-12-04T09:49:56.608Z,94630.52
2018-12-04T09:52:25.406Z,94626.14
2018-12-04T09:54:54.192Z,94626.94
2018-12-04T09:57:22.945Z,94625.48
2018-12-04T09:59:51.722Z,94627.27
2018-12-04T10:02:20.447Z,94616.08
2018-12-04T10:04:49.220Z,94616.06
2018-12-04T10:07:18.129Z,94615.75
2018-12-04T10:09:46.873Z,94606.45
2018-12-04T10:12:15.684Z,94609.19
2018-12-04T10:14:44.623Z,94603.70
2018-12-04T10:17:13.987Z,94593.59
2018-12-04T10:19:42.823Z,94596.31
2018-12-04T10:22:12.287Z,94589.29
2018-12-04T10:24:41.162Z,94587.42
2018-12-04T10:27:10.003Z,94589.64
2018-12-04T10:29:38.775Z,94585.26
2018-12-04T10:32:07.554Z,94587.00
2018-12-04T10:34:36.336Z,94587.16
2018-12-04T10:37:05.595Z,94586.23
2018-12-04T10:39:34.318Z,94580.60
2018-12-04T10:42:03.088Z,94574.22
2018-12-04T10:44:31.892Z,94571.02
2018-12-04T10:47:00.758Z,94572.42
2018-12-04T10:49:29.579Z,94567.55
2018-12-04T10:51:58.390Z,94568.47
2018-12-04T10:54:27.200Z,94572.05
2018-12-04T10:56:56.040Z,94564.39
2018-12-04T10:59:24.832Z,94573.59
2018-12-04T11:01:58.940Z,94570.09
2018-12-04T11:04:27.732Z,94568.34
2018-12-04T11:06:57.559Z,94565.53
2018-12-04T11:09:26.633Z,94569.27
2018-12-04T11:11:55.562Z,94562.78
2018-12-04T11:14:24.323Z,94563.19
2018-12-04T11:16:53.080Z,94560.44
2018-12-04T11:19:21.907Z,94566.13
2018-12-04T11:21:50.837Z,94567.09
2018-12-04T11:24:19.603Z,94559.31
2018-12-04T11:26:48.646Z,94563.59
2018-12-04T11:29:17.423Z,94561.36
2018-12-04T11:31:46.481Z,94561.71
2018-12-04T11:34:15.351Z,94562.69
2018-12-04T11:36:44.158Z,94553.48
2018-12-04T11:39:12.981Z,94558.41
2018-12-04T11:41:41.738Z,94553.55
2018-12-04T11:44:10.609Z,94557.66
2018-12-04T11:46:39.462Z,94555.16
2018-12-04T11:49:08.339Z,94556.35
2018-12-04T11:51:37.142Z,94555.34
2018-12-04T11:54:06.387Z,94553.00
2018-12-04T11:56:35.193Z,94544.20
2018-12-04T11:59:04.486Z,94541.59
2018-12-04T12:01:33.286Z,94545.47
2018-12-04T12:04:02.078Z,94544.94
2018-12-04T12:06:30.822Z,94543.89
2018-12-04T12:08:59.643Z,94541.88
2018-12-04T12:11:34.625Z,94547.33
2018-12-04T12:14:04.103Z,94546.63
2018-12-04T12:16:32.833Z,94546.52
2018-12-04T12:19:01.684Z,94549.23
2018-12-04T12:21:30.442Z,94547.34
2018-12-04T12:23:59.475Z,94545.98
2018-12-04T12:26:28.213Z,94541.45
2018-12-04T12:28:56.991Z,94544.34
2018-12-04T12:31:26.118Z,94547.88
2018-12-04T12:33:54.912Z,94540.71
2018-12-04T12:36:23.678Z,94543.45
2018-12-04T12:38:52.455Z,94546.03
2018-12-04T12:41:21.690Z,94545.84
2018-12-04T12:43:50.469Z,94553.86
2018-12-04T12:46:19.292Z,94555.23
2018-12-04T12:48:48.078Z,94553.31
2018-12-04T12:51:16.853Z,94554.20
2018-12-04T12:53:45.602Z,94561.02
2018-12-04T12:56:14.449Z,94554.69
2018-12-04T12:58:43.336Z,94558.42
2018-12-04T13:01:12.146Z,94557.76
2018-12-04T13:03:40.961Z,94558.95
2018-12-04T13:06:09.840Z,94555.72
2018-12-04T13:08:38.637Z,94558.02
2018-12-04T13:11:12.790Z,94559.42
2018-12-04T13:13:41.568Z,94560.41
2018-12-04T13:16:11.597Z,94556.45
2018-12-04T13:18:40.391Z,94560.06
2018-12-04T13:21:09.223Z,94559.44
2018-12-04T13:23:37.991Z,94551.36
2018-12-04T13:26:06.822Z,94550.44
2018-12-04T13:28:35.657Z,94554.78
2018-12-04T13:31:04.450Z,94553.97
2018-12-04T13:33:33.293Z,94550.02
2018-12-04T13:36:02.159Z,94550.14
2018-12-04T13:38:30.957Z,94557.92
2018-12-04T13:40:59.753Z,94558.73
2018-12-04T13:43:28.546Z,94557.39
2018-12-04T13:45:57.388Z,94564.05
2018-12-04T13:48:26.185Z,94562.80
2018-12-04T13:50:55.095Z,94562.47
2018-12-04T13:53:23.905Z,94566.11
2018-12-04T13:55:52.730Z,94568.05
2018-12-04T13:58:21.519Z,94571.30
2018-12-04T14:00:50.305Z,94571.02
2018-12-04T14:03:19.074Z,94568.63
2018-12-04T14:05:47.875Z,94577.08
2018-12-04T14:08:18.443Z,94569.82
2018-12-04T14:10:47.308Z,94571.77
2018-12-04T14:13:16.059Z,94567.22
2018-12-04T14:15:45.004Z,94569.86
2018-12-04T14:18:14.503Z,94569.54
2018-12-04T14:20:43.533Z,94564.06
2018-12-04T14:23:12.463Z,94560.85
2018-12-04T14:25:42.146Z,94568.28
2018-12-04T14:28:11.415Z,94564.38
2018-12-04T14:30:40.507Z,94566.95
2018-12-04T14:33:09.282Z,94569.05
2018-12-04T14:35:38.057Z,94573.91
2018-12-04T14:38:06.938Z,94569.53
2018-12-04T14:40:35.719Z,94574.40
2018-12-04T14:43:04.658Z,94571.33
2018-12-04T14:45:33.382Z,94567.43
2018-12-04T14:48:02.656Z,94564.05
2018-12-04T14:50:31.491Z,94562.44
2018-12-04T14:53:00.369Z,94565.65
2018-12-04T14:55:29.396Z,94569.25
2018-12-04T14:57:58.250Z,94569.58
2018-12-04T15:00:27.199Z,94569.41
2018-12-04T15:02:56.387Z,94570.26
2018-12-04T15:05:25.274Z,94573.02
2018-12-04T15:07:54.057Z,94573.50
2018-12-04T15:10:23.002Z,94578.05
2018-12-04T15:12:52.412Z,94578.98
2018-12-04T15:15:21.187Z,94579.30
2018-12-04T15:17:49.928Z,94586.61
2018-12-04T15:20:19.355Z,94581.26
2018-12-04T15:22:51.586Z,94586.80
2018-12-04T15:25:20.680Z,94590.05
2018-12-04T15:27:49.543Z,94589.40
2018-12-04T15:30:18.526Z,94588.13
2018-12-04T15:32:48.103Z,94585.86
2018-12-04T15:35:17.721Z,94593.61
2018-12-04T15:37:46.704Z,94597.21
2018-12-04T15:40:15.606Z,94592.02
2018-12-04T15:42:44.709Z,94595.27
2018-12-04T15:45:14.259Z,94600.13
2018-12-04T15:47:43.288Z,94600.16
2018-12-04T15:50:12.326Z,94604.70
2018-12-04T15:52:41.331Z,94598.20
2018-12-04T15:55:11.467Z,94604.88
2018-12-04T15:57:40.239Z,94609.58
2018-12-04T16:00:12.002Z,94609.60
2018-12-04T16:02:41.024Z,94605.06
2018-12-04T16:05:10.545Z,94612.84
2018-12-04T16:07:39.276Z,94607.82
2018-12-04T16:10:11.219Z,94615.12
2018-12-04T16:12:40.079Z,94614.79
2018-12-04T16:15:09.362Z,94619.33
2018-12-04T16:17:38.148Z,94616.71
2018-12-04T16:20:09.490Z,94609.91
2018-12-04T16:22:38.419Z,94605.53
2018-12-04T16:25:08.829Z,94610.23
2018-12-04T16:27:38.005Z,94610.07
2018-12-04T16:30:11.600Z,94614.75
2018-12-04T16:32:40.428Z,94615.39
2018-12-04T16:35:09.997Z,94618.97
2018-12-04T16:37:38.822Z,94622.53
2018-12-04T16:40:08.842Z,94616.70
2018-12-04T16:42:37.719Z,94623.48
2018-12-04T16:45:07.662Z,94626.23
2018-12-04T16:47:36.464Z,94622.34
2018-12-04T16:50:06.611Z,94619.75
2018-12-04T16:52:35.392Z,94623.81
2018-12-04T16:55:04.886Z,94625.13
2018-12-04T16:57:33.665Z,94624.45
2018-12-04T17:00:06.741Z,94615.38
2018-12-04T17:02:35.578Z,94621.22
2018-12-04T17:05:05.581Z,94622.34
2018-12-04T17:07:35.120Z,94619.75
2018-12-04T17:10:04.717Z,94619.59
2018-12-04T17:12:34.036Z,94620.25
2018-12-04T17:15:03.382Z,94628.33
2018-12-04T17:17:32.463Z,94626.05
2018-12-04T17:20:01.814Z,94628.35
2018-12-04T17:22:30.549Z,94635.81
2018-12-04T17:24:59.411Z,94633.36
2018-12-04T17:27:28.275Z,94641.95
2018-12-04T17:29:57.166Z,94637.41
2018-12-04T17:32:26.619Z,94634.47
2018-12-04T17:34:55.400Z,94643.09
2018-12-04T17:37:24.529Z,94647.95
2018-12-04T17:39:54.169Z,94654.28
2018-12-04T17:42:23.263Z,94651.50
2018-12-04T17:44:52.170Z,94650.53
2018-12-04T17:47:21.002Z,94646.80
2018-12-04T17:49:49.938Z,94652.50
2018-12-04T17:52:19.075Z,94656.22
2018-12-04T17:54:47.953Z,94663.05
2018-12-04T17:57:16.855Z,94669.06
2018-12-04T17:59:45.754Z,94667.25
2018-12-04T18:02:14.599Z,94679.94
2018-12-04T18:04:43.592Z,94674.73
2018-12-04T18:07:12.482Z,94679.45
2018-12-04T18:09:41.376Z,94682.86
2018-12-04T18:12:10.288Z,94683.52
2018-12-04T18:14:39.320Z,94675.39
2018-12-04T18:17:08.764Z,94682.53
2018-12-04T18:19:37.762Z,94678.97
2018-12-04T18:22:06.716Z,94677.02
2018-12-04T18:24:35.595Z,94693.41
2018-12-04T18:27:05.267Z,94697.77
2018-12-04T18:29:35.401Z,94694.05
2018-12-04T18:32:05.576Z,94686.42
2018-12-04T18:34:34.476Z,94693.23
2018-12-04T18:37:03.391Z,94692.75
2018-12-04T18:39:32.491Z,94685.16
2018-12-04T18:42:01.707Z,94696.81
2018-12-04T18:44:30.644Z,94699.41
2018-12-04T18:46:59.466Z,94698.75
2018-12-04T18:49:29.386Z,94702.83
2018-12-04T18:51:58.204Z,94701.34
2018-12-04T18:54:29.209Z,94703.63
2018-12-04T18:56:58.174Z,94693.58
2018-12-04T18:59:27.320Z,94695.18
2018-12-04T19:01:56.158Z,94698.10
2018-12-04T19:04:25.039Z,94702.33
2018-12-04T19:06:53.914Z,94702.97
2018-12-04T19:09:22.738Z,94702.47
2018-12-04T19:11:51.828Z,94702.64
2018-12-04T19:14:20.609Z,94702.97
2018-12-04T19:16:49.452Z,94693.91
2018-12-04T19:19:18.592Z,94705.09
2018-12-04T19:21:47.878Z,94702.97
2018-12-04T19:24:16.928Z,94707.35
2018-12-04T19:26:46.153Z,94713.33
2018-12-04T19:29:15.615Z,94708.31
2018-12-04T19:31:44.472Z,94716.11
2018-12-04T19:34:13.543Z,94713.02
2018-12-04T19:36:42.567Z,94710.41
2018-12-04T19:39:11.785Z,94713.34
2018-12-04T19:41:40.581Z,94715.77
2018-12-04T19:44:09.830Z,94710.42
2018-12-04T19:46:44.889Z,94716.91
2018-12-04T19:49:13.939Z,94710.56
2018-12-04T19:51:42.916Z,94714.93
2018-12-04T19:54:12.160Z,94706.17
2018-12-04T19:56:40.896Z,94709.25
2018-12-04T19:59:09.731Z,94709.42
2018-12-04T20:01:38.688Z,94715.61
2018-12-04T20:04:07.867Z,94711.86
2018-12-04T20:06:36.769Z,94717.20
2018-12-04T20:09:09.400Z,94715.91
2018-12-04T20:11:38.227Z,94720.45
2018-12-04T20:14:07.458Z,94723.19
2018-12-04T20:16:36.222Z,94724.00
2018-12-04T20:19:05.022Z,94721.09
2018-12-04T20:21:34.094Z,94718.16
2018-12-04T20:24:02.912Z,94728.89
2018-12-04T20:26:31.722Z,94733.42
2018-12-04T20:29:00.541Z,94729.36
2018-12-04T20:31:29.340Z,94725.64
2018-12-04T20:33:58.074Z,94723.52
2018-12-04T20:36:26.948Z,94718.97
2018-12-04T20:38:56.140Z,94720.92
2018-12-04T20:41:24.951Z,94714.94
2018-12-04T20:43:53.729Z,94723.70
2018-12-04T20:46:22.857Z,94731.14
2018-12-04T20:48:51.687Z,94731.65
2018-12-04T20:51:20.448Z,94734.38
2018-12-04T20:53:49.227Z,94737.47
2018-12-04T20:56:18.646Z,94742.52
2018-12-04T20:58:47.483Z,94740.41
2018-12-04T21:01:16.297Z,94749.50
2018-12-04T21:03:45.063Z,94745.30
2018-12-04T21:06:13.846Z,94748.69
2018-12-04T21:08:42.669Z,94743.17
2018-12-04T21:11:11.367Z,94751.46
2018-12-04T21:13:40.142Z,94744.79
2018-12-04T21:16:08.892Z,94751.94
2018-12-04T21:18:38.107Z,94753.41
2018-12-04T21:21:06.935Z,94757.78
2018-12-04T21:23:35.695Z,94757.44
2018-12-04T21:26:04.480Z,94765.56
2018-12-04T21:28:33.196Z,94759.72
2018-12-04T21:31:07.317Z,94765.89
2018-12-04T21:33:41.460Z,94771.07
2018-12-04T21:36:15.549Z,94774.00
2018-12-04T21:38:49.527Z,94771.39
2018-12-04T21:41:23.525Z,94774.00
2018-12-04T21:43:57.460Z,94777.39
2018-12-04T21:46:31.380Z,94782.09
2018-12-04T21:49:00.697Z,94786.98
2018-12-04T21:51:29.487Z,94777.88
2018-12-04T21:53:58.222Z,94778.55
2018-12-04T21:56:27.568Z,94787.30
2018-12-04T21:58:56.327Z,94785.67
2018-12-04T22:01:25.073Z,94790.21
2018-12-04T22:03:53.805Z,94789.73
2018-12-04T22:06:22.611Z,94781.63
2018-12-04T22:08:51.357Z,94784.39
2018-12-04T22:11:20.090Z,94793.78
2018-12-04T22:13:48.953Z,94793.30
2018-12-04T22:16:17.735Z,94791.36
2018-12-04T22:18:46.813Z,94788.42
2018-12-04T22:21:15.575Z,94793.14
2018-12-04T22:23:44.353Z,94795.73
2018-12-04T22:26:13.160Z,94795.89
2018-12-04T22:28:42.327Z,94798.98
2018-12-04T22:31:11.062Z,94798.98
2018-12-04T22:33:39.773Z,94802.20
2018-12-04T22:36:08.555Z,94801.23
2018-12-04T22:38:37.342Z,94795.41
2018-12-04T22:41:06.119Z,94803.19
2018-12-04T22:43:35.225Z,94800.91
2018-12-04T22:46:04.048Z,94800.09
2018-12-04T22:48:32.815Z,94798.81
2018-12-04T22:51:01.580Z,94798.31
2018-12-04T22:53:30.395Z,94798.31
2018-12-04T22:55:59.549Z,94799.30
2018-12-04T22:58:28.385Z,94797.66
2018-12-04T23:00:58.073Z,94797.14
2018-12-04T23:03:26.817Z,94793.27
2018-12-04T23:05:55.572Z,94793.91
2018-12-04T23:08:24.380Z,94793.59
2018-12-04T23:10:53.156Z,94799.30
2018-12-04T23:13:22.553Z,94800.42
2018-12-04T23:15:57.585Z,94804.00
2018-12-04T23:18:26.314Z,94801.71
2018-12-04T23:20:55.083Z,94813.23
2018-12-04T23:23:24.139Z,94810.98
2018-12-04T23:25:53.020Z,94811.78
2018-12-04T23:28:21.781Z,94811.30
2018-12-04T23:30:50.540Z,94818.11
2018-12-04T23:33:19.410Z,94818.42
2018-12-04T23:35:48.229Z,94819.08
2018-12-04T23:38:17.004Z,94825.25
2018-12-04T23:40:45.885Z,94827.50
2018-12-04T23:43:14.764Z,94827.34
2018-12-04T23:45:43.470Z,94822.64
2018-12-04T23:48:12.192Z,94821.83
2018-12-04T23:50:40.927Z,94824.78
2018-12-04T23:53:09.656Z,94824.29
2018-12-04T23:55:38.373Z,94831.75
2018-12-04T23:58:07.125Z,94835.00
